sensor_id;sensor_type;location;lat;lon;timestamp;pressure;altitude;pressure_sealevel;temperature
25514;BMP180;48128;54.242;10.280;2023-01-29T09:02:50;101709.00;;;3.80
25514;BMP180;48128;54.242;10.280;2023-01-29T09:05:17;101711.00;;;3.80
25514;BMP180;48128;54.242;10.280;2023-01-29T09:07:45;101699.00;;;3.80
25514;BMP180;48128;54.242;10.280;2023-01-29T09:10:11;101710.00;;;3.80
25514;BMP180;48128;54.242;10.280;2023-01-29T09:12:39;101706.00;;;3.80
25514;BMP180;48128;54.242;10.280;2023-01-29T09:15:06;101704.00;;;3.80
25514;BMP180;48128;54.242;10.280;2023-01-29T09:17:34;101705.00;;;3.80
25514;BMP180;48128;54.242;10.280;2023-01-29T09:20:02;101700.00;;;3.80
25514;BMP180;48128;54.242;10.280;2023-01-29T09:22:31;101694.00;;;3.80
25514;BMP180;48128;54.242;10.280;2023-01-29T09:24:59;101701.00;;;3.80
25514;BMP180;48128;54.242;10.280;2023-01-29T09:27:25;101704.00;;;3.80
25514;BMP180;48128;54.242;10.280;2023-01-29T09:29:52;101690.00;;;3.80
25514;BMP180;48128;54.242;10.280;2023-01-29T09:32:19;101682.00;;;3.80
25514;BMP180;48128;54.242;10.280;2023-01-29T09:35:06;101684.00;;;3.80
25514;BMP180;48128;54.242;10.280;2023-01-29T09:37:33;101680.00;;;3.80
25514;BMP180;48128;54.242;10.280;2023-01-29T09:40:00;101672.00;;;3.70
25514;BMP180;48128;54.242;10.280;2023-01-29T09:42:38;101677.00;;;3.70
25514;BMP180;48128;54.242;10.280;2023-01-29T09:47:35;101658.00;;;3.80
25514;BMP180;48128;54.242;10.280;2023-01-29T09:53:16;101662.00;;;3.80
25514;BMP180;48128;54.242;10.280;2023-01-29T09:55:54;101660.00;;;3.80
25514;BMP180;48128;54.242;10.280;2023-01-29T09:58:29;101655.00;;;3.90
25514;BMP180;48128;54.242;10.280;2023-01-29T10:03:44;101663.00;;;3.90
25514;BMP180;48128;54.242;10.280;2023-01-29T10:12:28;101650.00;;;3.90
25514;BMP180;48128;54.242;10.280;2023-01-29T10:23:49;101634.00;;;3.90
25514;BMP180;48128;54.242;10.280;2023-01-29T10:26:22;101630.00;;;3.90
25514;BMP180;48128;54.242;10.280;2023-01-29T10:28:50;101636.00;;;3.90
25514;BMP180;48128;54.242;10.280;2023-01-29T10:31:29;101613.00;;;3.90
25514;BMP180;48128;54.242;10.280;2023-01-29T10:34:01;101618.00;;;3.90
25514;BMP180;48128;54.242;10.280;2023-01-29T10:36:33;101618.00;;;3.90
25514;BMP180;48128;54.242;10.280;2023-01-29T10:39:01;101616.00;;;3.90
25514;BMP180;48128;54.242;10.280;2023-01-29T10:47:39;101603.00;;;3.90
25514;BMP180;48128;54.242;10.280;2023-01-29T11:01:37;101562.00;;;4.00
25514;BMP180;48128;54.242;10.280;2023-01-29T11:04:05;101549.00;;;4.00
25514;BMP180;48128;54.242;10.280;2023-01-29T11:06:34;101548.00;;;4.00
25514;BMP180;48128;54.242;10.280;2023-01-29T11:11:45;101554.00;;;4.10
25514;BMP180;48128;54.242;10.280;2023-01-29T11:14:43;101546.00;;;4.10
25514;BMP180;48128;54.242;10.280;2023-01-29T11:17:20;101535.00;;;4.10
25514;BMP180;48128;54.242;10.280;2023-01-29T11:19:48;101532.00;;;4.20
25514;BMP180;48128;54.242;10.280;2023-01-29T11:22:19;101538.00;;;4.30
25514;BMP180;48128;54.242;10.280;2023-01-29T11:27:33;101530.00;;;4.30
25514;BMP180;48128;54.242;10.280;2023-01-29T11:30:01;101531.00;;;4.30
25514;BMP180;48128;54.242;10.280;2023-01-29T11:32:31;101528.00;;;4.40
25514;BMP180;48128;54.242;10.280;2023-01-29T11:35:03;101513.00;;;4.50
25514;BMP180;48128;54.242;10.280;2023-01-29T11:39:58;101509.00;;;4.50
25514;BMP180;48128;54.242;10.280;2023-01-29T11:42:26;101496.00;;;4.50
25514;BMP180;48128;54.242;10.280;2023-01-29T11:44:55;101481.00;;;4.50
25514;BMP180;48128;54.242;10.280;2023-01-29T11:47:28;101480.00;;;4.60
25514;BMP180;48128;54.242;10.280;2023-01-29T11:49:56;101481.00;;;4.60
25514;BMP180;48128;54.242;10.280;2023-01-29T11:52:26;101484.00;;;4.70
25514;BMP180;48128;54.242;10.280;2023-01-29T11:55:14;101482.00;;;4.70
25514;BMP180;48128;54.242;10.280;2023-01-29T11:57:45;101475.00;;;4.70
25514;BMP180;48128;54.242;10.280;2023-01-29T12:00:25;101469.00;;;4.80
25514;BMP180;48128;54.242;10.280;2023-01-29T12:03:18;101468.00;;;4.80
25514;BMP180;48128;54.242;10.280;2023-01-29T12:05:57;101456.00;;;4.90
25514;BMP180;48128;54.242;10.280;2023-01-29T12:08:24;101447.00;;;4.90
25514;BMP180;48128;54.242;10.280;2023-01-29T12:11:12;101456.00;;;4.90
25514;BMP180;48128;54.242;10.280;2023-01-29T12:13:46;101440.00;;;4.80
25514;BMP180;48128;54.242;10.280;2023-01-29T12:16:24;101445.00;;;4.70
25514;BMP180;48128;54.242;10.280;2023-01-29T12:22:17;101454.00;;;4.70
25514;BMP180;48128;54.242;10.280;2023-01-29T12:27:18;101435.00;;;4.60
25514;BMP180;48128;54.242;10.280;2023-01-29T12:29:55;101428.00;;;4.70
25514;BMP180;48128;54.242;10.280;2023-01-29T12:34:57;101428.00;;;4.60
25514;BMP180;48128;54.242;10.280;2023-01-29T12:40:18;101432.00;;;4.60
25514;BMP180;48128;54.242;10.280;2023-01-29T12:42:49;101423.00;;;4.60
25514;BMP180;48128;54.242;10.280;2023-01-29T12:45:18;101413.00;;;4.60
25514;BMP180;48128;54.242;10.280;2023-01-29T12:47:48;101405.00;;;4.60
25514;BMP180;48128;54.242;10.280;2023-01-29T12:50:19;101396.00;;;4.50
25514;BMP180;48128;54.242;10.280;2023-01-29T12:52:53;101383.00;;;4.50
25514;BMP180;48128;54.242;10.280;2023-01-29T12:55:45;101385.00;;;4.50
25514;BMP180;48128;54.242;10.280;2023-01-29T12:58:22;101374.00;;;4.50
25514;BMP180;48128;54.242;10.280;2023-01-29T13:00:55;101367.00;;;4.50
25514;BMP180;48128;54.242;10.280;2023-01-29T13:06:17;101364.00;;;4.40
25514;BMP180;48128;54.242;10.280;2023-01-29T13:08:57;101373.00;;;4.40
25514;BMP180;48128;54.242;10.280;2023-01-29T13:11:38;101362.00;;;4.40
25514;BMP180;48128;54.242;10.280;2023-01-29T13:14:15;101357.00;;;4.30
25514;BMP180;48128;54.242;10.280;2023-01-29T13:16:46;101361.00;;;4.30
25514;BMP180;48128;54.242;10.280;2023-01-29T13:19:21;101347.00;;;4.30
25514;BMP180;48128;54.242;10.280;2023-01-29T13:21:53;101350.00;;;4.30
25514;BMP180;48128;54.242;10.280;2023-01-29T13:24:22;101346.00;;;4.30
25514;BMP180;48128;54.242;10.280;2023-01-29T13:26:50;101341.00;;;4.30
25514;BMP180;48128;54.242;10.280;2023-01-29T13:29:25;101328.00;;;4.30
25514;BMP180;48128;54.242;10.280;2023-01-29T13:31:54;101344.00;;;4.30
25514;BMP180;48128;54.242;10.280;2023-01-29T13:34:43;101340.00;;;4.30
25514;BMP180;48128;54.242;10.280;2023-01-29T13:37:34;101322.00;;;4.30
25514;BMP180;48128;54.242;10.280;2023-01-29T13:40:04;101318.00;;;4.30
25514;BMP180;48128;54.242;10.280;2023-01-29T13:42:45;101323.00;;;4.30
25514;BMP180;48128;54.242;10.280;2023-01-29T13:45:42;101317.00;;;4.30
25514;BMP180;48128;54.242;10.280;2023-01-29T13:48:27;101313.00;;;4.30
25514;BMP180;48128;54.242;10.280;2023-01-29T13:50:55;101323.00;;;4.20
25514;BMP180;48128;54.242;10.280;2023-01-29T13:53:28;101314.00;;;4.20
25514;BMP180;48128;54.242;10.280;2023-01-29T13:56:27;101305.00;;;4.20
25514;BMP180;48128;54.242;10.280;2023-01-29T13:58:55;101302.00;;;4.20
25514;BMP180;48128;54.242;10.280;2023-01-29T14:06:54;101278.00;;;4.20
25514;BMP180;48128;54.242;10.280;2023-01-29T14:12:30;101286.00;;;4.20
25514;BMP180;48128;54.242;10.280;2023-01-29T14:15:04;101272.00;;;4.10
25514;BMP180;48128;54.242;10.280;2023-01-29T14:17:31;101262.00;;;4.10
25514;BMP180;48128;54.242;10.280;2023-01-29T14:20:15;101274.00;;;4.10
25514;BMP180;48128;54.242;10.280;2023-01-29T14:22:43;101265.00;;;4.10
25514;BMP180;48128;54.242;10.280;2023-01-29T14:25:17;101277.00;;;4.10
25514;BMP180;48128;54.242;10.280;2023-01-29T14:27:47;101270.00;;;4.10
25514;BMP180;48128;54.242;10.280;2023-01-29T14:30:16;101260.00;;;4.10
25514;BMP180;48128;54.242;10.280;2023-01-29T14:32:47;101252.00;;;4.10
25514;BMP180;48128;54.242;10.280;2023-01-29T14:35:22;101252.00;;;4.10
25514;BMP180;48128;54.242;10.280;2023-01-29T14:37:51;101248.00;;;4.10
25514;BMP180;48128;54.242;10.280;2023-01-29T14:43:03;101240.00;;;4.10
25514;BMP180;48128;54.242;10.280;2023-01-29T14:45:38;101227.00;;;4.10
25514;BMP180;48128;54.242;10.280;2023-01-29T14:50:48;101228.00;;;4.10
25514;BMP180;48128;54.242;10.280;2023-01-29T14:53:19;101217.00;;;4.10
25514;BMP180;48128;54.242;10.280;2023-01-29T14:56:02;101226.00;;;4.10
25514;BMP180;48128;54.242;10.280;2023-01-29T14:58:36;101218.00;;;4.10
25514;BMP180;48128;54.242;10.280;2023-01-29T15:01:10;101215.00;;;4.10
25514;BMP180;48128;54.242;10.280;2023-01-29T15:03:44;101208.00;;;4.10
25514;BMP180;48128;54.242;10.280;2023-01-29T15:06:22;101201.00;;;4.10
25514;BMP180;48128;54.242;10.280;2023-01-29T15:11:51;101194.00;;;4.10
25514;BMP180;48128;54.242;10.280;2023-01-29T15:14:28;101181.00;;;4.10
25514;BMP180;48128;54.242;10.280;2023-01-29T15:19:45;101186.00;;;4.10
25514;BMP180;48128;54.242;10.280;2023-01-29T15:22:20;101177.00;;;4.10
25514;BMP180;48128;54.242;10.280;2023-01-29T15:25:09;101169.00;;;4.10
25514;BMP180;48128;54.242;10.280;2023-01-29T15:27:45;101164.00;;;4.10
25514;BMP180;48128;54.242;10.280;2023-01-29T15:30:25;101152.00;;;4.10
25514;BMP180;48128;54.242;10.280;2023-01-29T15:32:54;101163.00;;;4.10
25514;BMP180;48128;54.242;10.280;2023-01-29T15:35:33;101158.00;;;4.10
25514;BMP180;48128;54.242;10.280;2023-01-29T15:38:18;101143.00;;;4.10
25514;BMP180;48128;54.242;10.280;2023-01-29T15:43:48;101129.00;;;4.10
25514;BMP180;48128;54.242;10.280;2023-01-29T15:46:24;101129.00;;;4.10
25514;BMP180;48128;54.242;10.280;2023-01-29T15:48:53;101130.00;;;4.10
25514;BMP180;48128;54.242;10.280;2023-01-29T15:51:22;101137.00;;;4.10
25514;BMP180;48128;54.242;10.280;2023-01-29T15:53:52;101130.00;;;4.10
25514;BMP180;48128;54.242;10.280;2023-01-29T15:56:25;101138.00;;;4.10
25514;BMP180;48128;54.242;10.280;2023-01-29T15:58:54;101135.00;;;4.10
25514;BMP180;48128;54.242;10.280;2023-01-29T16:01:25;101136.00;;;4.10
25514;BMP180;48128;54.242;10.280;2023-01-29T16:03:52;101130.00;;;4.10
25514;BMP180;48128;54.242;10.280;2023-01-29T16:06:20;101118.00;;;4.10
25514;BMP180;48128;54.242;10.280;2023-01-29T16:08:50;101116.00;;;4.10
25514;BMP180;48128;54.242;10.280;2023-01-29T16:11:17;101120.00;;;4.20
25514;BMP180;48128;54.242;10.280;2023-01-29T16:13:47;101115.00;;;4.20
25514;BMP180;48128;54.242;10.280;2023-01-29T16:18:42;101113.00;;;4.20
25514;BMP180;48128;54.242;10.280;2023-01-29T16:21:33;101106.00;;;4.20
25514;BMP180;48128;54.242;10.280;2023-01-29T16:24:06;101115.00;;;4.20
25514;BMP180;48128;54.242;10.280;2023-01-29T16:26:36;101110.00;;;4.20
25514;BMP180;48128;54.242;10.280;2023-01-29T16:29:14;101107.00;;;4.20
25514;BMP180;48128;54.242;10.280;2023-01-29T16:31:42;101100.00;;;4.20
25514;BMP180;48128;54.242;10.280;2023-01-29T16:34:31;101108.00;;;4.20
25514;BMP180;48128;54.242;10.280;2023-01-29T16:36:59;101093.00;;;4.20
25514;BMP180;48128;54.242;10.280;2023-01-29T16:39:33;101099.00;;;4.20
25514;BMP180;48128;54.242;10.280;2023-01-29T16:44:52;101084.00;;;4.20
25514;BMP180;48128;54.242;10.280;2023-01-29T16:47:32;101070.00;;;4.20
25514;BMP180;48128;54.242;10.280;2023-01-29T16:52:55;101075.00;;;4.20
25514;BMP180;48128;54.242;10.280;2023-01-29T16:55:24;101053.00;;;4.20
25514;BMP180;48128;54.242;10.280;2023-01-29T16:57:54;101047.00;;;4.20
25514;BMP180;48128;54.242;10.280;2023-01-29T17:00:27;101054.00;;;4.20
25514;BMP180;48128;54.242;10.280;2023-01-29T17:03:03;101043.00;;;4.10
25514;BMP180;48128;54.242;10.280;2023-01-29T17:05:33;101038.00;;;4.10
25514;BMP180;48128;54.242;10.280;2023-01-29T17:08:01;101032.00;;;4.10
25514;BMP180;48128;54.242;10.280;2023-01-29T17:10:29;101038.00;;;4.10
25514;BMP180;48128;54.242;10.280;2023-01-29T17:13:07;101034.00;;;4.10
25514;BMP180;48128;54.242;10.280;2023-01-29T17:15:45;101026.00;;;4.10
25514;BMP180;48128;54.242;10.280;2023-01-29T17:18:23;101012.00;;;4.10
25514;BMP180;48128;54.242;10.280;2023-01-29T17:20:50;101016.00;;;4.10
25514;BMP180;48128;54.242;10.280;2023-01-29T17:23:19;101006.00;;;4.10
25514;BMP180;48128;54.242;10.280;2023-01-29T17:25:46;101004.00;;;4.10
25514;BMP180;48128;54.242;10.280;2023-01-29T17:28:15;100996.00;;;4.10
25514;BMP180;48128;54.242;10.280;2023-01-29T17:30:42;100989.00;;;4.10
25514;BMP180;48128;54.242;10.280;2023-01-29T17:33:19;100984.00;;;4.10
25514;BMP180;48128;54.242;10.280;2023-01-29T17:35:49;100994.00;;;4.00
25514;BMP180;48128;54.242;10.280;2023-01-29T17:38:17;100971.00;;;4.00
25514;BMP180;48128;54.242;10.280;2023-01-29T17:41:38;100978.00;;;4.10
25514;BMP180;48128;54.242;10.280;2023-01-29T17:43:46;100955.00;;;4.00
25514;BMP180;48128;54.242;10.280;2023-01-29T17:46:15;100956.00;;;4.00
25514;BMP180;48128;54.242;10.280;2023-01-29T17:48:43;100949.00;;;4.00
25514;BMP180;48128;54.242;10.280;2023-01-29T17:51:14;100937.00;;;4.00
25514;BMP180;48128;54.242;10.280;2023-01-29T17:53:42;100948.00;;;4.00
25514;BMP180;48128;54.242;10.280;2023-01-29T17:56:17;100932.00;;;4.00
25514;BMP180;48128;54.242;10.280;2023-01-29T17:58:44;100929.00;;;3.90
25514;BMP180;48128;54.242;10.280;2023-01-29T18:01:11;100935.00;;;3.90
25514;BMP180;48128;54.242;10.280;2023-01-29T18:03:38;100939.00;;;3.90
25514;BMP180;48128;54.242;10.280;2023-01-29T18:06:06;100930.00;;;3.90
25514;BMP180;48128;54.242;10.280;2023-01-29T18:08:35;100929.00;;;3.90
25514;BMP180;48128;54.242;10.280;2023-01-29T18:11:02;100914.00;;;3.90
25514;BMP180;48128;54.242;10.280;2023-01-29T18:13:29;100924.00;;;3.90
25514;BMP180;48128;54.242;10.280;2023-01-29T18:15:56;100903.00;;;3.80
25514;BMP180;48128;54.242;10.280;2023-01-29T18:18:23;100909.00;;;3.80
25514;BMP180;48128;54.242;10.280;2023-01-29T18:20:50;100887.00;;;3.80
25514;BMP180;48128;54.242;10.280;2023-01-29T18:23:16;100898.00;;;3.80
25514;BMP180;48128;54.242;10.280;2023-01-29T18:25:43;100889.00;;;3.80
25514;BMP180;48128;54.242;10.280;2023-01-29T18:28:15;100880.00;;;3.80
25514;BMP180;48128;54.242;10.280;2023-01-29T18:30:44;100883.00;;;3.80
25514;BMP180;48128;54.242;10.280;2023-01-29T18:33:13;100874.00;;;3.70
25514;BMP180;48128;54.242;10.280;2023-01-29T18:35:43;100865.00;;;3.70
25514;BMP180;48128;54.242;10.280;2023-01-29T18:38:10;100850.00;;;3.70
25514;BMP180;48128;54.242;10.280;2023-01-29T18:40:37;100873.00;;;3.70
25514;BMP180;48128;54.242;10.280;2023-01-29T18:43:04;100850.00;;;3.70
25514;BMP180;48128;54.242;10.280;2023-01-29T18:45:30;100844.00;;;3.70
25514;BMP180;48128;54.242;10.280;2023-01-29T18:47:57;100836.00;;;3.70
25514;BMP180;48128;54.242;10.280;2023-01-29T18:50:24;100829.00;;;3.70
25514;BMP180;48128;54.242;10.280;2023-01-29T18:52:52;100833.00;;;3.70
25514;BMP180;48128;54.242;10.280;2023-01-29T18:55:20;100819.00;;;3.70
25514;BMP180;48128;54.242;10.280;2023-01-29T18:57:46;100815.00;;;3.70
25514;BMP180;48128;54.242;10.280;2023-01-29T19:00:33;100817.00;;;3.70
25514;BMP180;48128;54.242;10.280;2023-01-29T19:03:00;100808.00;;;3.70
25514;BMP180;48128;54.242;10.280;2023-01-29T19:05:27;100809.00;;;3.70
25514;BMP180;48128;54.242;10.280;2023-01-29T19:07:56;100793.00;;;3.70
25514;BMP180;48128;54.242;10.280;2023-01-29T19:10:23;100788.00;;;3.70
25514;BMP180;48128;54.242;10.280;2023-01-29T19:12:50;100802.00;;;3.70
25514;BMP180;48128;54.242;10.280;2023-01-29T19:15:17;100783.00;;;3.70
25514;BMP180;48128;54.242;10.280;2023-01-29T19:17:46;100776.00;;;3.80
25514;BMP180;48128;54.242;10.280;2023-01-29T19:20:13;100777.00;;;3.80
25514;BMP180;48128;54.242;10.280;2023-01-29T19:22:40;100765.00;;;3.80
25514;BMP180;48128;54.242;10.280;2023-01-29T19:25:07;100768.00;;;3.80
25514;BMP180;48128;54.242;10.280;2023-01-29T19:27:34;100778.00;;;3.80
25514;BMP180;48128;54.242;10.280;2023-01-29T19:30:01;100766.00;;;3.80
25514;BMP180;48128;54.242;10.280;2023-01-29T19:32:31;100763.00;;;3.80
25514;BMP180;48128;54.242;10.280;2023-01-29T19:37:40;100750.00;;;3.80
25514;BMP180;48128;54.242;10.280;2023-01-29T19:40:07;100753.00;;;3.80
25514;BMP180;48128;54.242;10.280;2023-01-29T19:42:35;100748.00;;;3.80
25514;BMP180;48128;54.242;10.280;2023-01-29T19:45:03;100730.00;;;3.80
25514;BMP180;48128;54.242;10.280;2023-01-29T19:47:31;100734.00;;;3.80
25514;BMP180;48128;54.242;10.280;2023-01-29T19:49:59;100732.00;;;3.80
25514;BMP180;48128;54.242;10.280;2023-01-29T19:52:29;100724.00;;;3.80
